Time;durP1;ratioP1;P1;durP2;ratioP2;P2;SDS_P1;SDS_P2;PMS_P1;PMS_P2;Temp;Humidity;BMP_temperature;BMP_pressure;BME280_temperature;BME280_humidity;BME280_pressure;Samples;Min_cycle;Max_cycle;Signal;HPM_P1;HPM_P2
2023/05/25 00:01:03;;;;;;;8.00;5.72;;;;;;;16.11;100.00;97371.38;5073568;28;20110;-82
2023/05/25 00:03:29;;;;;;;11.30;6.28;;;;;;;16.17;100.00;97372.69;5056566;28;20381;-82
2023/05/25 00:05:56;;;;;;;9.60;6.15;;;;;;;16.13;100.00;97372.09;5073532;28;20027;-83
2023/05/25 00:08:22;;;;;;;11.93;6.05;;;;;;;16.11;100.00;97363.28;5073643;28;20102;-81
2023/05/25 00:10:48;;;;;;;9.73;5.43;;;;;;;16.05;100.00;97341.38;5073368;28;20059;-82
2023/05/25 00:13:13;;;;;;;6.70;5.38;;;;;;;16.03;100.00;97356.81;5073151;28;20024;-82
2023/05/25 00:15:39;;;;;;;7.68;5.40;;;;;;;16.07;100.00;97371.75;5056052;28;20058;-81
2023/05/25 00:18:05;;;;;;;8.88;5.90;;;;;;;15.95;100.00;97367.41;5073320;28;20030;-82
2023/05/25 00:20:31;;;;;;;9.07;6.50;;;;;;;15.99;100.00;97372.44;5072958;28;20020;-81
2023/05/25 00:22:58;;;;;;;10.48;6.45;;;;;;;15.93;100.00;97367.56;5073620;28;20376;-82
2023/05/25 00:25:23;;;;;;;10.35;6.50;;;;;;;15.82;100.00;97383.81;5056023;28;20077;-81
2023/05/25 00:27:49;;;;;;;9.48;6.45;;;;;;;15.75;100.00;97392.56;5072885;28;20479;-82
2023/05/25 00:30:14;;;;;;;10.50;6.47;;;;;;;15.72;100.00;97390.97;5056416;28;20373;-82
2023/05/25 00:32:40;;;;;;;8.98;5.93;;;;;;;15.57;100.00;97394.97;5055983;28;20024;-82
2023/05/25 00:35:06;;;;;;;17.92;6.47;;;;;;;15.56;100.00;97404.91;5056471;28;20056;-82
2023/05/25 00:37:32;;;;;;;9.32;6.65;;;;;;;15.58;100.00;97418.25;5059615;28;20110;-81
2023/05/25 00:39:57;;;;;;;8.70;6.70;;;;;;;15.55;100.00;97408.59;5060362;28;20107;-81
2023/05/25 00:42:23;;;;;;;26.35;7.47;;;;;;;15.53;100.00;97405.19;5077026;28;20391;-82
2023/05/25 00:44:49;;;;;;;11.88;7.03;;;;;;;15.45;100.00;97407.59;5060022;28;20032;-82
2023/05/25 00:47:16;;;;;;;14.88;7.55;;;;;;;15.42;100.00;97407.88;5060951;28;20044;-82
2023/05/25 00:49:42;;;;;;;11.38;6.30;;;;;;;15.35;100.00;97412.03;5076949;28;20118;-82
2023/05/25 00:52:09;;;;;;;15.05;7.05;;;;;;;15.26;100.00;97406.59;5076867;28;20103;-81
2023/05/25 00:54:36;;;;;;;14.63;7.22;;;;;;;15.25;100.00;97413.81;5060122;28;20020;-82
2023/05/25 00:57:03;;;;;;;12.13;6.45;;;;;;;15.22;100.00;97424.84;5076367;28;20031;-82
2023/05/25 00:59:40;;;;;;;10.25;6.53;;;;;;;15.06;100.00;97425.25;5060062;28;20020;-81
2023/05/25 01:02:10;;;;;;;8.57;6.03;;;;;;;15.09;100.00;97422.31;5060101;28;20173;-82
2023/05/25 01:04:41;;;;;;;12.65;6.35;;;;;;;15.01;100.00;97421.22;5059999;28;20023;-82
2023/05/25 01:07:07;;;;;;;11.23;6.22;;;;;;;14.98;100.00;97422.31;5051998;28;20471;-82
2023/05/25 01:09:34;;;;;;;7.80;5.72;;;;;;;14.96;100.00;97431.50;5076516;28;20050;-83
2023/05/25 01:12:01;;;;;;;10.25;6.38;;;;;;;14.87;100.00;97427.72;5059837;28;20032;-82
2023/05/25 01:14:27;;;;;;;16.55;5.80;;;;;;;14.81;100.00;97422.84;5059630;28;20048;-82
2023/05/25 01:16:55;;;;;;;9.93;6.22;;;;;;;14.87;100.00;97427.72;5076236;28;20114;-82
2023/05/25 01:19:21;;;;;;;10.82;6.20;;;;;;;14.95;100.00;97433.34;5076818;28;20105;-81
2023/05/25 01:21:53;;;;;;;13.98;7.13;;;;;;;15.02;100.00;97436.38;5076302;28;20024;-81
2023/05/25 01:24:31;;;;;;;9.38;6.38;;;;;;;15.04;100.00;97440.66;5059685;28;20428;-81
2023/05/25 01:27:05;;;;;;;10.38;6.07;;;;;;;14.94;100.00;97438.84;5094024;28;20103;-81
2023/05/25 01:29:33;;;;;;;14.20;6.55;;;;;;;14.82;100.00;97423.69;5076174;28;20024;-82
2023/05/25 01:31:58;;;;;;;9.98;6.75;;;;;;;14.74;100.00;97437.75;5059178;28;20028;-82
2023/05/25 01:34:25;;;;;;;9.90;6.25;;;;;;;14.80;100.00;97434.56;5076025;28;20028;-82
2023/05/25 01:36:50;;;;;;;8.57;6.10;;;;;;;14.57;100.00;97409.53;5058846;28;20039;-81
2023/05/25 01:39:19;;;;;;;8.80;5.85;;;;;;;14.57;100.00;97409.53;5059088;28;20020;-82
2023/05/25 01:41:45;;;;;;;9.57;6.00;;;;;;;14.48;100.00;97407.56;5094045;28;20024;-82
2023/05/25 01:44:10;;;;;;;11.75;6.22;;;;;;;14.37;100.00;97399.47;5058997;28;20031;-82
2023/05/25 01:46:39;;;;;;;9.23;6.00;;;;;;;14.38;100.00;97417.34;5059603;28;20020;-82
2023/05/25 01:49:17;;;;;;;7.75;5.65;;;;;;;14.38;100.00;97422.72;5074957;28;20070;-82
2023/05/25 01:52:10;;;;;;;7.50;5.88;;;;;;;14.36;100.00;97422.00;5058981;28;20103;-82
2023/05/25 01:54:44;;;;;;;10.02;6.25;;;;;;;14.41;100.00;97425.16;5059064;28;20040;-82
2023/05/25 01:57:12;;;;;;;8.13;5.72;;;;;;;14.33;100.00;97426.75;5076084;28;20410;-82
2023/05/25 01:59:41;;;;;;;8.40;6.05;;;;;;;14.35;100.00;97439.13;5075508;28;20059;-82
2023/05/25 02:02:08;;;;;;;10.57;6.03;;;;;;;14.37;100.00;97433.59;5075652;28;20074;-82
2023/05/25 02:04:34;;;;;;;9.77;5.47;;;;;;;14.39;100.00;97450.50;5059079;28;20045;-82
2023/05/25 02:07:00;;;;;;;8.90;5.72;;;;;;;14.41;100.00;97438.63;5058447;28;20035;-82
2023/05/25 02:09:25;;;;;;;12.38;5.95;;;;;;;14.35;100.00;97433.72;5058716;28;20106;-82
2023/05/25 02:11:51;;;;;;;7.85;5.72;;;;;;;14.31;100.00;97440.28;5058635;28;20064;-81
2023/05/25 02:14:16;;;;;;;8.85;6.28;;;;;;;14.37;100.00;97441.66;5075175;28;20044;-82
2023/05/25 02:16:44;;;;;;;9.23;5.63;;;;;;;14.35;100.00;97444.50;5058550;28;20407;-82
2023/05/25 02:19:13;;;;;;;8.70;5.78;;;;;;;14.39;100.00;97440.59;5093489;28;20028;-81
2023/05/25 02:21:40;;;;;;;8.77;5.80;;;;;;;14.30;100.00;97433.22;5075576;28;20035;-81
2023/05/25 02:24:08;;;;;;;8.45;6.07;;;;;;;14.22;100.00;97437.47;5058445;28;20040;-82
2023/05/25 02:26:38;;;;;;;12.80;6.43;;;;;;;14.19;100.00;97438.56;5076197;28;20024;-82
2023/05/25 02:29:07;;;;;;;14.00;6.32;;;;;;;14.18;100.00;97450.28;5076265;28;20028;-84
2023/05/25 02:32:01;;;;;;;12.80;6.47;;;;;;;14.17;100.00;97453.97;5075864;28;20028;-82
2023/05/25 02:34:47;;;;;;;10.05;6.60;;;;;;;14.12;100.00;97456.13;5073733;28;20043;-82
2023/05/25 02:37:13;;;;;;;11.38;6.57;;;;;;;13.89;100.00;97416.75;5034720;28;20492;-81
2023/05/25 02:39:38;;;;;;;10.75;6.38;;;;;;;14.04;100.00;97453.19;5074569;28;20024;-82
2023/05/25 02:42:04;;;;;;;8.60;6.05;;;;;;;14.15;100.00;97458.59;5057923;28;20036;-82
2023/05/25 02:44:30;;;;;;;13.82;6.60;;;;;;;14.15;100.00;97458.59;5074457;28;20051;-82
2023/05/25 02:46:55;;;;;;;13.10;6.35;;;;;;;14.20;100.00;97458.25;5074627;28;20481;-82
2023/05/25 02:49:21;;;;;;;10.10;6.53;;;;;;;14.25;100.00;97462.28;5074785;28;20039;-81
2023/05/25 02:51:46;;;;;;;21.30;7.18;;;;;;;14.21;100.00;97468.91;5058111;28;20458;-83
2023/05/25 02:54:12;;;;;;;16.88;7.00;;;;;;;14.18;100.00;97476.34;5075691;28;20020;-83
2023/05/25 02:57:03;;;;;;;14.45;7.13;;;;;;;14.09;100.00;97462.63;5057731;28;20382;-82
2023/05/25 02:59:29;;;;;;;15.45;7.10;;;;;;;14.06;100.00;97470.94;5091910;28;20024;-82
2023/05/25 03:01:54;;;;;;;10.90;6.32;;;;;;;14.01;100.00;97483.03;5074359;28;20486;-82
2023/05/25 03:04:20;;;;;;;9.15;6.68;;;;;;;13.98;100.00;97488.63;5057486;28;20023;-82
2023/05/25 03:06:46;;;;;;;12.13;6.60;;;;;;;13.97;100.00;97484.22;5057504;28;20929;-82
2023/05/25 03:09:12;;;;;;;17.60;6.80;;;;;;;14.03;100.00;97494.50;5074086;28;20016;-82
2023/05/25 03:11:37;;;;;;;12.27;7.05;;;;;;;14.04;100.00;97486.34;5057249;28;20020;-82
2023/05/25 03:14:03;;;;;;;12.73;6.70;;;;;;;14.06;100.00;97484.38;5073940;28;20523;-82
2023/05/25 03:16:28;;;;;;;12.35;6.57;;;;;;;14.17;100.00;97494.31;5057663;28;20086;-81
2023/05/25 03:18:54;;;;;;;12.38;6.38;;;;;;;14.12;100.00;97491.09;5068653;28;20026;-82
2023/05/25 03:21:21;;;;;;;16.40;7.38;;;;;;;14.15;100.00;97487.34;5074144;28;20028;-82
2023/05/25 03:23:52;;;;;;;13.32;6.60;;;;;;;14.09;100.00;97489.53;5074678;28;20399;-82
2023/05/25 03:26:21;;;;;;;16.77;6.75;;;;;;;14.24;100.00;97492.88;5057689;28;20047;-82
2023/05/25 03:28:48;;;;;;;9.93;6.38;;;;;;;14.13;100.00;97456.03;5055748;28;20411;-82
2023/05/25 03:31:20;;;;;;;15.25;6.32;;;;;;;14.39;100.00;97480.09;5069340;28;20402;-82
2023/05/25 03:33:46;;;;;;;16.52;6.40;;;;;;;14.41;100.00;97472.75;5081437;28;20024;-82
2023/05/25 03:36:12;;;;;;;11.23;6.32;;;;;;;14.45;100.00;97469.72;5071363;28;20481;-83
2023/05/25 03:38:38;;;;;;;15.70;6.55;;;;;;;14.51;100.00;97477.31;5060232;28;20020;-82
2023/05/25 03:41:03;;;;;;;17.63;6.75;;;;;;;14.50;100.00;97472.03;5052039;28;20025;-82
2023/05/25 03:43:29;;;;;;;8.75;6.10;;;;;;;14.61;100.00;97470.19;5068197;28;20024;-82
2023/05/25 03:45:55;;;;;;;13.38;6.65;;;;;;;14.57;100.00;97479.50;5070997;28;20431;-82
2023/05/25 03:48:20;;;;;;;15.65;6.82;;;;;;;14.59;100.00;97482.06;5059710;28;20039;-83
2023/05/25 03:50:46;;;;;;;11.50;7.00;;;;;;;14.57;100.00;97473.25;5050516;28;20094;-83
2023/05/25 03:53:11;;;;;;;13.30;6.65;;;;;;;14.64;100.00;97491.47;5084868;28;20415;-83
2023/05/25 03:55:37;;;;;;;9.80;6.50;;;;;;;14.75;100.00;97487.94;5057667;28;20037;-82
2023/05/25 03:58:02;;;;;;;16.10;6.82;;;;;;;14.73;100.00;97479.16;5067047;28;20028;-81
2023/05/25 04:00:28;;;;;;;14.85;6.93;;;;;;;14.74;100.00;97486.22;5066609;28;20033;-82
2023/05/25 04:02:53;;;;;;;19.63;8.50;;;;;;;14.84;100.00;97480.97;5066708;28;20025;-82
2023/05/25 04:05:19;;;;;;;26.95;11.45;;;;;;;14.96;100.00;97486.22;5076375;28;20028;-83
2023/05/25 04:07:44;;;;;;;30.17;10.02;;;;;;;15.05;100.00;97490.88;5066536;28;20124;-83
2023/05/25 04:10:10;;;;;;;15.45;7.97;;;;;;;15.22;100.00;97494.91;5049304;28;20029;-81
2023/05/25 04:12:36;;;;;;;17.83;7.75;;;;;;;15.18;100.00;97480.81;5060429;28;20581;-83
2023/05/25 04:15:03;;;;;;;25.65;8.82;;;;;;;15.34;100.00;97485.81;5062903;28;20115;-82
2023/05/25 04:17:28;;;;;;;18.42;8.35;;;;;;;15.31;100.00;97491.47;5052410;28;20415;-83
2023/05/25 04:19:55;;;;;;;23.58;9.27;;;;;;;15.44;100.00;97475.13;5069610;28;20024;-83
2023/05/25 04:22:20;;;;;;;23.45;9.75;;;;;;;15.40;100.00;97479.91;5086493;28;20422;-82
2023/05/25 04:24:46;;;;;;;27.63;10.07;;;;;;;15.35;100.00;97479.44;5070352;28;20028;-83
2023/05/25 04:27:13;;;;;;;19.58;9.82;;;;;;;15.38;100.00;97481.03;5063434;28;20029;-84
2023/05/25 04:29:39;;;;;;;21.85;10.75;;;;;;;15.35;100.00;97484.81;5052652;28;20068;-82
2023/05/25 04:32:08;;;;;;;25.17;11.77;;;;;;;15.38;100.00;97486.44;5086542;28;20028;-82
2023/05/25 04:34:35;;;;;;;27.95;12.13;;;;;;;15.45;100.00;97488.47;5062502;28;20043;-83
2023/05/25 04:37:04;;;;;;;32.92;12.02;;;;;;;15.57;100.00;97487.50;5084988;28;20093;-83
2023/05/25 04:39:31;;;;;;;28.23;11.82;;;;;;;15.67;100.00;97480.34;5069904;28;20410;-84
2023/05/25 04:41:57;;;;;;;24.38;10.68;;;;;;;15.71;100.00;97480.97;5059879;28;20119;-83
2023/05/25 04:44:23;;;;;;;26.33;13.93;;;;;;;15.65;100.00;97487.72;5065983;28;20562;-83
2023/05/25 04:46:48;;;;;;;20.85;10.70;;;;;;;15.75;100.00;97484.25;5055800;28;20024;-83
2023/05/25 04:49:15;;;;;;;14.60;8.57;;;;;;;15.87;100.00;97494.88;5037105;28;20033;-83
2023/05/25 04:51:41;;;;;;;18.10;9.30;;;;;;;15.79;100.00;97480.31;5045380;28;20036;-83
2023/05/25 04:54:06;;;;;;;21.52;9.48;;;;;;;15.72;100.00;97491.59;5035440;28;20021;-83
2023/05/25 04:56:32;;;;;;;25.40;10.32;;;;;;;15.76;100.00;97492.22;5035513;28;20032;-84
2023/05/25 04:58:57;;;;;;;18.80;10.38;;;;;;;15.71;100.00;97494.44;5046499;28;20032;-84
2023/05/25 05:01:25;;;;;;;30.70;10.25;;;;;;;15.87;100.00;97492.19;5041561;28;20020;-83
2023/05/25 05:03:50;;;;;;;27.77;10.73;;;;;;;15.90;100.00;97488.38;5048523;28;20044;-81
2023/05/25 05:06:16;;;;;;;26.95;9.52;;;;;;;16.09;100.00;97496.59;5049592;28;20024;-86
2023/05/25 05:08:42;;;;;;;30.73;11.48;;;;;;;16.29;100.00;97493.06;5055789;28;20508;-83
2023/05/25 05:11:07;;;;;;;14.95;8.73;;;;;;;16.53;100.00;97482.84;5061412;28;20021;-81
2023/05/25 05:13:33;;;;;;;19.15;10.13;;;;;;;16.80;100.00;97490.41;5057188;28;20107;-80
2023/05/25 05:15:58;;;;;;;22.20;9.00;;;;;;;16.82;100.00;97476.78;5065352;28;20405;-82
2023/05/25 05:18:24;;;;;;;24.05;8.55;;;;;;;16.91;100.00;97467.88;5041176;28;20020;-82
2023/05/25 05:20:49;;;;;;;16.95;8.18;;;;;;;17.08;100.00;97464.50;5043777;28;20488;-81
2023/05/25 05:23:15;;;;;;;19.88;8.88;;;;;;;17.24;100.00;97468.41;5057881;28;20143;-84
2023/05/25 05:25:40;;;;;;;28.10;9.82;;;;;;;17.23;100.00;97473.94;5043812;28;20318;-82
2023/05/25 05:28:06;;;;;;;19.67;9.05;;;;;;;17.16;100.00;97470.09;5041452;28;20051;-82
2023/05/25 05:30:32;;;;;;;14.07;8.88;;;;;;;17.25;100.00;97478.25;5064435;28;20036;-83
2023/05/25 05:32:58;;;;;;;41.15;22.13;;;;;;;17.27;100.00;97475.38;5055726;28;20485;-83
2023/05/25 05:35:23;;;;;;;56.25;27.77;;;;;;;17.69;100.00;97493.16;5065284;28;20028;-83
2023/05/25 05:37:49;;;;;;;32.40;12.48;;;;;;;17.86;100.00;97478.09;5042939;28;20037;-81
2023/05/25 05:40:14;;;;;;;27.55;10.05;;;;;;;17.94;100.00;97475.50;5043012;28;20025;-82
2023/05/25 05:42:41;;;;;;;26.52;10.93;;;;;;;18.23;100.00;97473.66;5052493;28;20040;-82
2023/05/25 05:45:07;;;;;;;18.10;9.60;;;;;;;18.43;100.00;97463.63;5035518;28;20510;-82
2023/05/25 05:47:32;;;;;;;20.23;9.05;;;;;;;18.00;100.00;97460.53;5049336;28;20111;-82
2023/05/25 05:49:58;;;;;;;21.33;10.52;;;;;;;18.45;100.00;97467.06;5049123;28;20609;-81
2023/05/25 05:52:23;;;;;;;14.95;8.70;;;;;;;18.55;100.00;97453.53;5056344;28;20021;-82
2023/05/25 05:54:49;;;;;;;14.57;8.60;;;;;;;18.72;100.00;97452.75;5044020;28;20044;-81
2023/05/25 05:57:14;;;;;;;29.63;10.98;;;;;;;18.22;100.00;97465.66;5048615;28;20024;-81
2023/05/25 05:59:41;;;;;;;15.50;9.18;;;;;;;18.00;100.00;97468.66;5066983;28;20486;-81
2023/05/25 06:02:06;;;;;;;19.77;9.57;;;;;;;17.88;100.00;97468.81;5052050;28;20021;-80
2023/05/25 06:04:32;;;;;;;19.48;10.38;;;;;;;18.14;100.00;97481.78;5060972;28;20028;-81
2023/05/25 06:06:57;;;;;;;18.65;9.45;;;;;;;18.38;100.00;97466.78;5048383;28;20024;-82
2023/05/25 06:09:25;;;;;;;22.30;9.65;;;;;;;18.31;100.00;97481.03;5048408;28;20064;-80
2023/05/25 06:11:50;;;;;;;19.80;12.02;;;;;;;18.37;100.00;97478.63;5057464;28;20039;-82
2023/05/25 06:14:16;;;;;;;15.60;9.63;;;;;;;18.20;100.00;97475.78;5067734;28;20028;-80
2023/05/25 06:16:42;;;;;;;13.65;8.48;;;;;;;18.23;100.00;97489.03;5051757;28;20025;-80
2023/05/25 06:19:08;;;;;;;18.95;9.70;;;;;;;17.79;100.00;97491.31;5067863;28;20515;-80
2023/05/25 06:21:33;;;;;;;18.95;10.77;;;;;;;17.83;100.00;97505.44;5061117;28;20112;-80
2023/05/25 06:23:59;;;;;;;17.67;10.43;;;;;;;17.86;100.00;97514.13;5031350;28;20534;-80
2023/05/25 06:26:26;;;;;;;16.05;8.98;;;;;;;17.84;100.00;97509.84;5047941;28;20036;-80
2023/05/25 06:28:51;;;;;;;19.70;10.40;;;;;;;17.70;100.00;97524.63;5048354;28;20009;-81
2023/05/25 06:31:17;;;;;;;12.25;8.02;;;;;;;17.53;100.00;97522.56;5031173;28;20047;-80
2023/05/25 06:33:43;;;;;;;16.60;7.65;;;;;;;17.44;100.00;97539.63;5050439;28;20063;-80
2023/05/25 06:36:08;;;;;;;21.25;9.60;;;;;;;17.48;100.00;97546.47;5067561;28;20098;-80
2023/05/25 06:38:34;;;;;;;20.85;8.48;;;;;;;17.32;100.00;97544.25;5050760;28;20435;-80
2023/05/25 06:41:04;;;;;;;13.05;8.02;;;;;;;17.54;100.00;97554.03;5054981;28;20026;-81
2023/05/25 06:43:30;;;;;;;12.95;7.85;;;;;;;17.62;100.00;97559.66;5048184;28;20052;-80
2023/05/25 06:45:56;;;;;;;21.15;9.05;;;;;;;17.73;100.00;97554.13;5031194;28;20404;-81
2023/05/25 06:48:22;;;;;;;11.98;7.78;;;;;;;17.79;100.00;97553.56;5049298;28;20500;-80
2023/05/25 06:50:48;;;;;;;17.75;8.95;;;;;;;17.83;100.00;97544.19;5050475;28;20028;-81
2023/05/25 06:53:13;;;;;;;15.93;8.50;;;;;;;17.67;100.00;97545.69;5050303;28;20052;-80
2023/05/25 06:55:39;;;;;;;23.05;9.80;;;;;;;17.53;100.00;97576.69;5056101;28;20017;-81
2023/05/25 06:58:04;;;;;;;20.73;9.10;;;;;;;17.73;100.00;97585.72;5067159;28;20101;-81
2023/05/25 07:00:30;;;;;;;17.67;8.88;;;;;;;17.90;100.00;97581.50;5039999;28;20166;-81
2023/05/25 07:02:55;;;;;;;13.25;7.95;;;;;;;17.91;100.00;97569.66;5030511;28;20028;-81
2023/05/25 07:05:21;;;;;;;16.65;9.10;;;;;;;17.79;100.00;97571.63;5047021;28;20029;-80
2023/05/25 07:07:46;;;;;;;20.95;8.57;;;;;;;17.73;100.00;97574.91;5048271;28;20056;-81
2023/05/25 07:10:12;;;;;;;21.27;10.07;;;;;;;17.77;100.00;97588.03;5031126;28;20029;-82
2023/05/25 07:12:37;;;;;;;20.58;8.80;;;;;;;17.76;100.00;97605.25;5051363;28;20039;-84
2023/05/25 07:15:03;;;;;;;14.45;8.63;;;;;;;17.66;100.00;97601.66;5061591;28;20447;-83
2023/05/25 07:17:30;;;;;;;14.73;8.88;;;;;;;17.47;100.00;97603.41;5065303;28;20047;-81
2023/05/25 07:19:55;;;;;;;19.92;10.15;;;;;;;17.51;100.00;97618.34;5048288;28;20501;-82
2023/05/25 07:22:22;;;;;;;18.77;10.70;;;;;;;17.59;100.00;97613.16;5064812;28;20066;-80
2023/05/25 07:24:48;;;;;;;15.05;10.50;;;;;;;17.71;100.00;97628.31;5030029;28;20123;-80
2023/05/25 07:27:14;;;;;;;16.25;10.35;;;;;;;17.85;100.00;97611.69;5045060;28;20030;-81
2023/05/25 07:29:39;;;;;;;22.40;11.80;;;;;;;17.86;100.00;97611.56;5047452;28;20044;-80
2023/05/25 07:32:05;;;;;;;23.98;12.55;;;;;;;17.97;100.00;97621.38;5030038;28;20032;-80
2023/05/25 07:34:32;;;;;;;18.45;12.15;;;;;;;18.12;100.00;97630.81;5050300;28;20408;-80
2023/05/25 07:36:58;;;;;;;24.15;14.23;;;;;;;18.26;100.00;97637.69;5042948;28;20028;-80
2023/05/25 07:39:23;;;;;;;20.75;11.32;;;;;;;18.41;100.00;97636.28;5029669;28;20082;-80
2023/05/25 07:41:49;;;;;;;20.80;11.60;;;;;;;18.53;100.00;97640.59;5046405;28;20090;-80
2023/05/25 07:44:14;;;;;;;17.55;11.98;;;;;;;18.61;100.00;97635.31;5053385;28;20056;-80
2023/05/25 07:46:40;;;;;;;26.73;11.85;;;;;;;18.80;100.00;97624.47;5066568;28;20511;-81
2023/05/25 07:49:10;;;;;;;18.73;11.43;;;;;;;19.06;100.00;97623.88;5063939;28;20028;-81
2023/05/25 07:51:36;;;;;;;20.52;11.98;;;;;;;19.39;100.00;97628.78;5055690;28;20017;-80
2023/05/25 07:54:01;;;;;;;14.35;10.10;;;;;;;19.68;100.00;97597.00;5030084;28;20044;-80
2023/05/25 07:56:27;;;;;;;12.20;8.77;;;;;;;19.84;100.00;97586.34;5046925;28;20041;-80
2023/05/25 07:58:53;;;;;;;14.57;8.40;;;;;;;20.16;100.00;97577.72;5030215;28;20182;-79
2023/05/25 08:01:18;;;;;;;14.13;8.43;;;;;;;20.57;100.00;97587.16;5030167;28;20013;-80
2023/05/25 08:03:44;;;;;;;20.23;8.43;;;;;;;20.62;100.00;97562.19;5057237;28;20522;-80
2023/05/25 08:06:09;;;;;;;14.68;7.65;;;;;;;20.99;100.00;97568.28;5066507;28;20047;-80
2023/05/25 08:08:36;;;;;;;13.77;8.60;;;;;;;21.29;100.00;97564.25;5066187;28;20457;-80
2023/05/25 08:11:01;;;;;;;18.85;10.48;;;;;;;21.82;100.00;97553.97;5035128;28;20029;-80
2023/05/25 08:13:27;;;;;;;17.50;7.43;;;;;;;22.29;100.00;97550.72;5051904;28;20041;-80
2023/05/25 08:15:53;;;;;;;12.63;7.28;;;;;;;22.69;100.00;97539.88;5046674;28;20120;-80
2023/05/25 08:18:18;;;;;;;9.20;6.88;;;;;;;23.99;100.00;97544.03;5067319;28;20100;-81
2023/05/25 08:20:45;;;;;;;10.48;6.22;;;;;;;24.51;100.00;97522.34;5071894;28;20031;-81
2023/05/25 08:23:10;;;;;;;7.88;5.80;;;;;;;24.87;100.00;97511.63;5049644;28;20033;-81
2023/05/25 08:25:36;;;;;;;9.32;6.35;;;;;;;24.78;100.00;97531.88;5036194;28;20032;-82
2023/05/25 08:28:01;;;;;;;10.70;6.13;;;;;;;23.93;100.00;97511.94;5066748;28;20392;-81
2023/05/25 08:30:28;;;;;;;8.40;6.10;;;;;;;24.41;100.00;97523.63;5056802;28;20048;-81
2023/05/25 08:32:53;;;;;;;7.70;6.30;;;;;;;24.68;100.00;97528.53;5052988;28;20036;-81
2023/05/25 08:35:18;;;;;;;7.88;6.15;;;;;;;24.86;100.00;97520.00;5052352;28;20170;-81
2023/05/25 08:37:44;;;;;;;12.52;6.82;;;;;;;24.37;100.00;97528.59;5071068;28;20484;-80
2023/05/25 08:40:21;;;;;;;11.18;6.25;;;;;;;22.96;100.00;97528.59;5057473;28;20041;-80
2023/05/25 08:42:47;;;;;;;7.93;5.65;;;;;;;22.59;100.00;97525.53;5055124;28;20029;-80
2023/05/25 08:45:13;;;;;;;13.32;6.85;;;;;;;22.45;100.00;97527.06;5052461;28;20434;-81
2023/05/25 08:47:42;;;;;;;12.25;6.28;;;;;;;23.38;100.00;97528.34;5055512;28;20028;-81
2023/05/25 08:50:09;;;;;;;8.40;5.95;;;;;;;23.61;100.00;97523.88;5064001;28;20074;-81
2023/05/25 08:52:35;;;;;;;8.27;5.90;;;;;;;23.39;100.00;97523.72;5045633;28;20033;-82
2023/05/25 08:55:04;;;;;;;9.50;5.93;;;;;;;23.69;100.00;97525.69;5056281;28;20389;-80
2023/05/25 08:57:46;;;;;;;8.30;5.35;;;;;;;23.87;100.00;97529.03;5065497;28;20040;-81
2023/05/25 09:00:14;;;;;;;8.77;5.82;;;;;;;24.05;100.00;97532.38;5042892;28;20055;-82
2023/05/25 09:02:52;;;;;;;7.57;5.80;;;;;;;24.34;100.00;97523.47;5037780;28;20508;-81
2023/05/25 09:05:17;;;;;;;9.50;4.55;;;;;;;24.48;100.00;97505.44;5051964;28;20040;-81
2023/05/25 09:07:43;;;;;;;7.65;5.18;;;;;;;24.11;100.00;97506.22;5067360;28;20036;-82
2023/05/25 09:10:13;;;;;;;13.10;5.78;;;;;;;23.70;100.00;97505.56;5052762;28;20036;-81
2023/05/25 09:12:39;;;;;;;9.00;5.18;;;;;;;24.04;100.00;97517.00;5050179;28;20055;-81
2023/05/25 09:15:06;;;;;;;8.73;4.82;;;;;;;24.07;100.00;97499.38;5051107;28;20031;-81
2023/05/25 09:17:31;;;;;;;17.63;5.53;;;;;;;23.55;100.00;97505.47;5053623;28;20037;-82
2023/05/25 09:19:58;;;;;;;9.00;5.43;;;;;;;24.14;100.00;97508.59;5041361;28;20017;-81
2023/05/25 09:22:23;;;;;;;8.23;5.30;;;;;;;24.56;100.00;97508.97;5057460;28;20040;-80
2023/05/25 09:24:49;;;;;;;8.15;5.25;;;;;;;24.87;100.00;97489.75;5072591;28;20028;-82
2023/05/25 09:27:21;;;;;;;7.22;5.15;;;;;;;25.01;100.00;97491.66;5040309;28;20116;-81
2023/05/25 09:29:50;;;;;;;6.72;5.05;;;;;;;24.55;100.00;97490.03;5060319;28;20041;-83
2023/05/25 09:32:18;;;;;;;14.02;5.20;;;;;;;24.99;100.00;97492.88;5048788;28;20037;-83
2023/05/25 09:34:47;;;;;;;10.23;5.60;;;;;;;25.34;100.00;97500.38;5054794;28;20028;-82
2023/05/25 09:37:15;;;;;;;17.52;6.97;;;;;;;25.46;94.65;97487.91;5064426;28;20024;-80
2023/05/25 09:39:41;;;;;;;12.85;5.25;;;;;;;26.73;82.83;97479.91;5069959;28;20561;-82
2023/05/25 09:42:07;;;;;;;9.80;4.45;;;;;;;27.43;81.36;97481.78;5045146;28;20408;-81
2023/05/25 09:44:32;;;;;;;23.85;5.57;;;;;;;27.67;81.23;97472.19;5049046;28;20036;-82
2023/05/25 09:46:58;;;;;;;6.40;4.97;;;;;;;27.09;76.94;97460.59;5052013;28;20035;-82
2023/05/25 09:49:25;;;;;;;9.15;4.93;;;;;;;27.94;75.01;97466.59;5042229;28;20120;-81
2023/05/25 09:51:51;;;;;;;21.73;5.00;;;;;;;28.09;77.32;97469.19;5058525;28;20444;-81
2023/05/25 09:54:16;;;;;;;8.05;4.53;;;;;;;27.55;77.68;97457.31;5066272;28;20039;-82
2023/05/25 09:56:42;;;;;;;9.18;4.72;;;;;;;28.45;71.34;97467.00;5057596;28;20029;-83
2023/05/25 09:59:08;;;;;;;6.03;4.55;;;;;;;29.69;61.43;97448.69;5049655;28;20032;-81
2023/05/25 10:01:33;;;;;;;10.43;4.45;;;;;;;30.56;57.92;97453.59;5066994;28;20088;-82
2023/05/25 10:04:02;;;;;;;11.13;3.83;;;;;;;31.46;50.72;97433.69;5072297;28;20373;-82
2023/05/25 10:06:28;;;;;;;9.23;3.20;;;;;;;31.74;45.51;97405.50;5064265;28;20480;-83
2023/05/25 10:08:56;;;;;;;4.20;3.70;;;;;;;30.10;46.85;97384.84;5053238;28;20029;-81
2023/05/25 10:11:23;;;;;;;5.47;3.75;;;;;;;31.50;46.11;97395.38;5071358;28;20106;-81
2023/05/25 10:13:52;;;;;;;13.30;6.20;;;;;;;30.73;49.76;97388.44;5046435;28;20025;-82
2023/05/25 10:16:17;;;;;;;15.20;4.50;;;;;;;30.49;50.11;97379.06;5054528;28;20033;-80
2023/05/25 10:18:46;;;;;;;7.63;4.47;;;;;;;30.49;49.91;97379.06;5050814;28;20043;-85
2023/05/25 10:21:12;;;;;;;9.70;4.78;;;;;;;29.65;54.41;97374.88;5049378;28;20029;-82
2023/05/25 10:23:46;;;;;;;13.38;4.38;;;;;;;28.90;58.68;97387.38;5040581;28;20040;-82
2023/05/25 10:26:20;;;;;;;6.88;4.60;;;;;;;28.80;58.47;97373.16;5032372;28;20481;-82
2023/05/25 10:28:49;;;;;;;4.90;3.97;;;;;;;28.52;59.91;97378.88;5047198;28;20484;-85
2023/05/25 10:31:15;;;;;;;6.32;4.20;;;;;;;29.66;53.14;97373.78;5034833;28;20577;-79
2023/05/25 10:33:43;;;;;;;8.55;4.18;;;;;;;31.00;47.49;97383.53;5045170;28;20044;-81
2023/05/25 10:36:09;;;;;;;9.35;3.55;;;;;;;32.46;43.48;97393.41;5058033;28;20031;-81
2023/05/25 10:38:36;;;;;;;4.70;3.50;;;;;;;33.56;41.21;97374.22;5058777;28;20033;-80
2023/05/25 10:41:03;;;;;;;11.95;4.53;;;;;;;34.59;40.33;97374.94;5043442;28;20024;-79
2023/05/25 10:43:29;;;;;;;7.13;4.35;;;;;;;34.25;40.05;97353.72;5065602;28;20032;-79
2023/05/25 10:45:55;;;;;;;5.70;4.00;;;;;;;35.11;38.74;97352.47;5031053;28;20090;-78
2023/05/25 10:48:21;;;;;;;5.22;3.65;;;;;;;33.99;38.68;97309.91;5030626;28;20039;-78
2023/05/25 10:50:50;;;;;;;7.40;2.92;;;;;;;35.09;36.49;97324.06;5051928;28;20028;-78
2023/05/25 10:53:16;;;;;;;6.53;3.40;;;;;;;36.44;35.04;97332.44;5031440;28;20028;-78
2023/05/25 10:55:47;;;;;;;5.30;3.08;;;;;;;35.25;34.57;97270.31;5050580;28;20075;-78
2023/05/25 10:58:15;;;;;;;5.38;3.05;;;;;;;35.35;34.15;97253.75;5051910;28;20076;-78
2023/05/25 11:00:41;;;;;;;3.95;2.60;;;;;;;36.54;32.86;97275.97;5030574;28;20052;-80
2023/05/25 11:03:07;;;;;;;2.97;2.50;;;;;;;36.28;31.18;97219.97;5031943;28;20021;-80
2023/05/25 11:05:34;;;;;;;3.67;3.05;;;;;;;37.35;31.22;97241.88;5054408;28;20082;-78
2023/05/25 11:08:05;;;;;;;7.00;4.03;;;;;;;35.99;34.44;97232.50;5038763;28;20040;-79
2023/05/25 11:10:48;;;;;;;5.85;3.90;;;;;;;35.89;34.96;97255.53;5028034;28;20028;-78
2023/05/25 11:13:33;;;;;;;10.15;4.18;;;;;;;36.80;34.80;97277.81;5048352;28;20112;-78
2023/05/25 11:16:20;;;;;;;6.18;3.67;;;;;;;37.83;33.08;97277.00;5053112;28;20021;-79
2023/05/25 11:18:58;;;;;;;12.65;3.60;;;;;;;38.21;32.63;97272.09;5063863;28;20353;-79